Rosebud, Montana
Current Conditions -  °F | °C
As of 9:17 PM on Tuesday 21 Oct 2014 (Local Time) from KMLS Reporting Station
Light Rain Light Rain  
Wind Chill: 63°   Ceiling: 8000
Heat Index: 63°   Visibility: 10mi
Dew Point: 45°   Wind: 15mph
Humidity: 52%   Direction: 320°NW
Pressure: 29.74"   Gusts: NA
Location:  46.27°N, 106.45°W
Report Text: KMLS 220317Z AUTO 32013KT 10SM -RA BKN080 OVC100 17/07 A2974 RMK AO2 WSHFT 0257 P0000 T01720072
Loading
Personal Weather Stations






























Interactive Weather Map
Tropical Storm Tracking
New forecast layout! Learn more

10-Day Weather Forecast

Advertisements
Track Severe Weather on mobile